createdAt,value
2022-11-30T00:00:01.965Z,22.52
2022-11-30T00:02:30.119Z,20.48
2022-11-30T00:04:56.879Z,21.90
2022-11-30T00:07:23.601Z,21.45
2022-11-30T00:09:50.351Z,22.17
2022-11-30T00:12:17.074Z,19.58
2022-11-30T00:14:44.003Z,23.08
2022-11-30T00:17:10.795Z,21.17
2022-11-30T00:19:37.504Z,21.20
2022-11-30T00:22:04.149Z,21.38
2022-11-30T00:24:30.901Z,21.15
2022-11-30T00:26:57.616Z,19.30
2022-11-30T00:29:24.629Z,19.10
2022-11-30T00:31:51.302Z,20.48
2022-11-30T00:34:17.958Z,20.67
2022-11-30T00:36:44.690Z,21.15
2022-11-30T00:39:11.362Z,19.10
2022-11-30T00:41:38.021Z,18.83
2022-11-30T00:44:04.778Z,20.83
2022-11-30T00:46:31.466Z,20.83
2022-11-30T00:48:58.178Z,19.35
2022-11-30T00:51:24.935Z,19.67
2022-11-30T00:53:51.664Z,21.58
2022-11-30T00:56:18.309Z,20.90
2022-11-30T00:58:45.084Z,20.42
2022-11-30T01:01:11.827Z,19.20
2022-11-30T01:03:38.553Z,20.85
2022-11-30T01:06:06.514Z,19.58
2022-11-30T01:08:33.353Z,19.30
2022-11-30T01:11:14.898Z,20.25
2022-11-30T01:13:41.774Z,18.38
2022-11-30T01:16:11.823Z,20.90
2022-11-30T01:18:38.771Z,21.80
2022-11-30T01:21:07.306Z,20.75
2022-11-30T01:23:34.028Z,20.85
2022-11-30T01:26:00.751Z,18.70
2022-11-30T01:28:27.911Z,18.70
2022-11-30T01:31:05.724Z,18.90
2022-11-30T01:33:32.866Z,20.58
2022-11-30T01:36:06.226Z,20.73
2022-11-30T01:38:40.320Z,18.83
2022-11-30T01:41:07.667Z,18.95
2022-11-30T01:43:42.356Z,20.00
2022-11-30T01:46:18.082Z,18.90
2022-11-30T01:48:45.090Z,18.15
2022-11-30T01:51:11.796Z,18.90
2022-11-30T01:53:38.471Z,18.65
2022-11-30T01:56:05.400Z,18.30
2022-11-30T01:58:32.457Z,17.90
2022-11-30T02:00:59.761Z,19.30
2022-11-30T02:03:34.658Z,19.50
2022-11-30T02:06:01.445Z,17.77
2022-11-30T02:08:28.284Z,18.15
2022-11-30T02:10:57.813Z,16.73
2022-11-30T02:14:03.220Z,18.08
2022-11-30T02:16:54.600Z,16.65
2022-11-30T02:19:24.131Z,16.10
2022-11-30T02:22:19.659Z,17.13
2022-11-30T02:25:18.408Z,17.30
2022-11-30T02:28:10.644Z,16.25
2022-11-30T02:30:38.661Z,16.40
2022-11-30T02:33:13.846Z,15.20
2022-11-30T02:35:54.704Z,15.68
2022-11-30T02:38:22.786Z,17.25
2022-11-30T02:40:49.456Z,16.67
2022-11-30T02:43:16.269Z,15.18
2022-11-30T02:45:52.593Z,16.23
2022-11-30T02:48:21.133Z,17.23
2022-11-30T02:50:52.062Z,16.13
2022-11-30T02:53:18.751Z,14.38
2022-11-30T02:55:45.399Z,15.20
2022-11-30T02:58:12.533Z,12.73
2022-11-30T03:00:39.284Z,15.18
2022-11-30T03:03:05.987Z,14.40
2022-11-30T03:05:32.798Z,14.73
2022-11-30T03:07:59.699Z,14.27
2022-11-30T03:10:26.450Z,14.27
2022-11-30T03:12:53.133Z,14.70
2022-11-30T03:15:19.861Z,14.48
2022-11-30T03:17:46.532Z,13.68
2022-11-30T03:20:13.201Z,12.88
2022-11-30T03:22:39.924Z,15.20
2022-11-30T03:25:07.067Z,15.38
2022-11-30T03:27:33.748Z,13.73
2022-11-30T03:30:00.547Z,14.05
2022-11-30T03:32:27.303Z,14.52
2022-11-30T03:34:53.966Z,13.02
2022-11-30T03:37:20.727Z,15.07
2022-11-30T03:39:47.503Z,14.25
2022-11-30T03:42:14.210Z,13.63
2022-11-30T03:44:40.949Z,15.48
2022-11-30T03:47:07.671Z,14.18
2022-11-30T03:49:37.951Z,17.13
2022-11-30T03:52:04.981Z,14.85
2022-11-30T03:54:32.118Z,15.38
2022-11-30T03:56:58.888Z,16.65
2022-11-30T03:59:25.956Z,15.05
2022-11-30T04:01:52.665Z,16.55
2022-11-30T04:04:19.399Z,15.95
2022-11-30T04:06:46.093Z,15.73
2022-11-30T04:09:12.832Z,14.85
2022-11-30T04:11:39.501Z,15.15
2022-11-30T04:14:06.280Z,14.93
2022-11-30T04:16:32.994Z,15.27
2022-11-30T04:18:59.827Z,15.65
2022-11-30T04:21:26.562Z,15.80
2022-11-30T04:23:53.286Z,14.73
2022-11-30T04:26:19.954Z,15.77
2022-11-30T04:28:46.604Z,14.75
2022-11-30T04:31:13.398Z,14.73
2022-11-30T04:33:40.239Z,16.65
2022-11-30T04:36:07.594Z,15.93
2022-11-30T04:38:35.888Z,15.55
2022-11-30T04:41:07.755Z,16.13
2022-11-30T04:43:34.617Z,15.60
2022-11-30T04:46:01.275Z,16.55
2022-11-30T04:48:28.052Z,15.27
2022-11-30T04:50:54.715Z,16.40
2022-11-30T04:53:21.374Z,16.42
2022-11-30T04:55:48.062Z,16.75
2022-11-30T04:58:14.735Z,16.98
2022-11-30T05:00:41.491Z,17.00
2022-11-30T05:03:08.144Z,15.90
2022-11-30T05:05:34.886Z,18.25
2022-11-30T05:08:01.760Z,18.48
2022-11-30T05:10:28.689Z,19.05
2022-11-30T05:12:55.414Z,18.63
2022-11-30T05:15:22.097Z,16.65
2022-11-30T05:17:48.772Z,16.33
2022-11-30T05:20:15.584Z,16.48
2022-11-30T05:22:42.323Z,17.17
2022-11-30T05:25:09.407Z,18.90
2022-11-30T05:27:36.447Z,18.58
2022-11-30T05:30:03.507Z,17.70
2022-11-30T05:32:30.202Z,16.85
2022-11-30T05:34:57.427Z,16.25
2022-11-30T05:37:24.250Z,17.70
2022-11-30T05:39:50.912Z,19.20
2022-11-30T05:42:17.642Z,17.45
2022-11-30T05:44:45.444Z,19.65
2022-11-30T05:47:12.652Z,17.08
2022-11-30T05:49:39.431Z,17.83
2022-11-30T05:52:06.107Z,17.42
2022-11-30T05:54:33.896Z,18.05
2022-11-30T05:57:00.666Z,18.08
2022-11-30T05:59:27.490Z,15.82
2022-11-30T06:01:54.333Z,18.45
2022-11-30T06:04:21.735Z,16.25
2022-11-30T06:06:49.481Z,18.15
2022-11-30T06:09:16.513Z,16.63
2022-11-30T06:11:43.242Z,18.17
2022-11-30T06:14:09.930Z,16.02
2022-11-30T06:16:39.325Z,17.33
2022-11-30T06:19:06.139Z,16.88
2022-11-30T06:21:32.901Z,18.55
2022-11-30T06:23:59.696Z,15.65
2022-11-30T06:26:26.432Z,15.40
2022-11-30T06:28:53.162Z,16.00
2022-11-30T06:31:19.861Z,15.93
2022-11-30T06:33:46.692Z,18.15
2022-11-30T06:36:13.372Z,15.98
2022-11-30T06:38:40.082Z,16.33
2022-11-30T06:41:08.134Z,15.15
2022-11-30T06:43:38.686Z,14.63
2022-11-30T06:46:05.962Z,16.15
2022-11-30T06:48:33.180Z,14.82
2022-11-30T06:51:00.506Z,15.95
2022-11-30T06:53:27.359Z,18.05
2022-11-30T06:55:54.117Z,16.70
2022-11-30T06:58:20.803Z,17.42
2022-11-30T07:00:47.571Z,18.58
2022-11-30T07:03:14.551Z,15.68
2022-11-30T07:05:43.823Z,18.33
2022-11-30T07:08:11.305Z,16.17
2022-11-30T07:10:41.990Z,17.42
2022-11-30T07:13:15.052Z,16.30
2022-11-30T07:15:42.085Z,18.13
2022-11-30T07:18:08.991Z,17.77
2022-11-30T07:20:35.927Z,17.50
2022-11-30T07:23:22.796Z,16.92
2022-11-30T07:26:09.322Z,19.20
2022-11-30T07:28:37.973Z,16.48
2022-11-30T07:31:16.604Z,17.23
2022-11-30T07:33:43.837Z,15.30
2022-11-30T07:36:10.646Z,15.85
2022-11-30T07:38:37.840Z,17.67
2022-11-30T07:41:04.907Z,16.75
2022-11-30T07:43:31.753Z,16.55
2022-11-30T07:45:58.759Z,17.00
2022-11-30T07:48:25.435Z,14.65
2022-11-30T07:50:52.264Z,16.23
2022-11-30T07:53:18.992Z,15.95
2022-11-30T07:55:45.741Z,17.15
2022-11-30T07:58:17.132Z,16.10
2022-11-30T08:00:44.422Z,17.88
2022-11-30T08:03:11.289Z,16.40
2022-11-30T08:05:38.055Z,15.73
2022-11-30T08:08:04.827Z,16.15
2022-11-30T08:10:31.827Z,17.98
2022-11-30T08:12:58.624Z,19.00
2022-11-30T08:15:32.143Z,17.90
2022-11-30T08:18:05.243Z,14.20
2022-11-30T08:20:32.003Z,14.80
2022-11-30T08:22:58.845Z,13.68
2022-11-30T08:25:25.618Z,14.70
2022-11-30T08:27:52.318Z,13.38
2022-11-30T08:30:19.137Z,13.05
2022-11-30T08:32:48.574Z,13.95
2022-11-30T08:35:15.316Z,12.95
2022-11-30T08:37:41.970Z,13.95
2022-11-30T08:40:09.120Z,13.55
2022-11-30T08:42:35.910Z,13.80
2022-11-30T08:45:03.024Z,13.50
2022-11-30T08:47:30.626Z,13.27
2022-11-30T08:50:01.503Z,12.30
2022-11-30T08:52:28.249Z,11.18
2022-11-30T08:54:55.352Z,11.07
2022-11-30T08:57:22.385Z,10.85
2022-11-30T08:59:49.398Z,12.25
2022-11-30T09:02:17.925Z,11.43
2022-11-30T09:04:47.359Z,11.10
2022-11-30T09:07:14.105Z,11.73
2022-11-30T09:09:40.761Z,10.20
2022-11-30T09:12:07.745Z,10.00
2022-11-30T09:14:34.440Z,9.27
2022-11-30T09:17:01.152Z,8.75
2022-11-30T09:19:27.999Z,10.30
2022-11-30T09:21:54.986Z,9.13
2022-11-30T09:24:21.882Z,10.20
2022-11-30T09:26:48.682Z,11.13
2022-11-30T09:29:15.589Z,10.88
2022-11-30T09:31:42.370Z,9.90
2022-11-30T09:34:11.042Z,10.43
2022-11-30T09:36:37.711Z,10.80
2022-11-30T09:39:04.479Z,10.30
2022-11-30T09:42:04.741Z,10.10
2022-11-30T09:44:52.239Z,10.07
2022-11-30T09:47:33.201Z,9.95
2022-11-30T09:50:10.555Z,10.02
2022-11-30T09:52:39.581Z,10.55
2022-11-30T09:55:08.831Z,10.52
2022-11-30T09:57:56.821Z,12.05
2022-11-30T10:00:24.260Z,11.75
2022-11-30T10:02:51.994Z,10.65
2022-11-30T10:05:23.679Z,11.35
2022-11-30T10:08:12.351Z,10.57
2022-11-30T10:11:00.955Z,10.52
2022-11-30T10:13:49.430Z,8.82
2022-11-30T10:16:25.887Z,9.40
2022-11-30T10:19:02.925Z,10.07
2022-11-30T10:21:48.811Z,11.00
2022-11-30T10:24:29.701Z,9.40
2022-11-30T10:26:57.888Z,10.18
2022-11-30T10:29:36.577Z,8.70
2022-11-30T10:32:18.559Z,9.27
2022-11-30T10:34:55.018Z,10.10
2022-11-30T10:37:35.494Z,10.38
2022-11-30T10:40:14.048Z,10.77
2022-11-30T10:42:50.108Z,11.50
2022-11-30T10:45:19.706Z,11.88
2022-11-30T10:48:12.302Z,10.43
2022-11-30T10:50:39.417Z,9.63
2022-11-30T10:53:06.540Z,10.27
2022-11-30T10:55:38.950Z,9.98
2022-11-30T10:58:23.155Z,10.95
2022-11-30T11:01:06.641Z,9.60
2022-11-30T11:03:33.750Z,9.25
2022-11-30T11:06:11.636Z,9.43
2022-11-30T11:08:38.359Z,9.18
2022-11-30T11:11:06.140Z,9.05
2022-11-30T11:13:43.128Z,9.60
2022-11-30T11:16:11.535Z,8.38
2022-11-30T11:18:58.498Z,10.02
2022-11-30T11:21:25.180Z,9.80
2022-11-30T11:23:55.519Z,8.48
2022-11-30T11:26:26.566Z,10.52
2022-11-30T11:28:54.352Z,8.63
2022-11-30T11:31:26.985Z,10.68
2022-11-30T11:33:54.309Z,10.25
2022-11-30T11:36:28.818Z,10.20
2022-11-30T11:38:55.986Z,9.52
2022-11-30T11:41:30.297Z,10.32
2022-11-30T11:44:01.180Z,11.52
2022-11-30T11:46:28.314Z,11.63
2022-11-30T11:49:00.714Z,10.95
2022-11-30T11:51:37.787Z,11.38
2022-11-30T11:54:22.178Z,9.30
2022-11-30T11:59:32.651Z,8.77
2022-11-30T12:02:03.859Z,9.55
2022-11-30T12:04:42.853Z,7.78
2022-11-30T12:07:18.325Z,7.18
2022-11-30T12:09:55.264Z,6.95
2022-11-30T12:12:22.010Z,7.97
2022-11-30T12:14:48.779Z,9.45
2022-11-30T12:17:42.039Z,9.98
2022-11-30T12:20:14.650Z,10.43
2022-11-30T12:22:47.372Z,9.52
2022-11-30T12:25:21.479Z,10.02
2022-11-30T12:30:23.286Z,8.55
2022-11-30T12:32:58.280Z,10.82
2022-11-30T12:36:00.296Z,11.25
2022-11-30T12:38:44.620Z,9.10
2022-11-30T12:44:04.233Z,7.97
2022-11-30T12:46:53.193Z,8.77
2022-11-30T12:49:41.617Z,8.70
2022-11-30T12:52:24.822Z,8.57
2022-11-30T12:55:04.586Z,8.73
2022-11-30T12:57:43.437Z,8.05
2022-11-30T13:00:21.763Z,8.50
2022-11-30T13:02:54.460Z,9.15
2022-11-30T13:05:25.025Z,8.88
2022-11-30T13:08:24.202Z,9.00
2022-11-30T13:10:56.088Z,8.60
2022-11-30T13:13:25.977Z,8.70
2022-11-30T13:15:52.806Z,8.63
2022-11-30T13:18:21.440Z,9.15
2022-11-30T13:21:20.762Z,10.63
2022-11-30T13:23:56.464Z,10.88
2022-11-30T13:26:40.265Z,9.77
2022-11-30T13:29:31.561Z,10.57
2022-11-30T13:32:55.162Z,10.13
2022-11-30T13:35:30.501Z,10.20
2022-11-30T13:38:35.704Z,10.63
2022-11-30T13:41:05.263Z,10.05
2022-11-30T13:43:43.034Z,10.32
2022-11-30T13:46:17.617Z,11.10
2022-11-30T13:48:44.692Z,10.82
2022-11-30T13:51:11.807Z,9.60
2022-11-30T13:53:39.034Z,9.43
2022-11-30T13:56:07.871Z,10.30
2022-11-30T13:58:34.973Z,11.23
2022-11-30T14:04:14.893Z,11.60
2022-11-30T14:06:41.648Z,11.00
2022-11-30T14:09:40.516Z,12.13
2022-11-30T14:12:37.151Z,10.45
2022-11-30T14:15:39.112Z,12.35
2022-11-30T14:18:08.615Z,11.00
2022-11-30T14:20:38.153Z,11.20
2022-11-30T14:23:11.544Z,11.75
2022-11-30T14:25:38.337Z,12.87
2022-11-30T14:28:05.784Z,12.52
2022-11-30T14:30:33.338Z,10.35
2022-11-30T14:33:06.086Z,11.70
2022-11-30T14:35:33.052Z,11.35
2022-11-30T14:38:00.193Z,11.32
2022-11-30T14:40:29.780Z,12.02
2022-11-30T14:42:57.291Z,11.85
2022-11-30T14:45:32.592Z,11.90
2022-11-30T14:48:13.795Z,12.68
2022-11-30T14:50:47.169Z,11.50
2022-11-30T14:53:34.587Z,12.82
2022-11-30T14:56:24.646Z,13.88
2022-11-30T14:58:56.075Z,13.25
2022-11-30T15:01:28.726Z,12.48
2022-11-30T15:03:58.115Z,12.75
2022-11-30T15:06:29.039Z,14.18
2022-11-30T15:08:56.598Z,13.55
2022-11-30T15:11:23.337Z,12.60
2022-11-30T15:13:53.838Z,15.63
2022-11-30T15:16:24.354Z,13.10
2022-11-30T15:18:51.655Z,12.43
2022-11-30T15:21:24.112Z,13.80
2022-11-30T15:23:51.901Z,13.77
2022-11-30T15:26:21.102Z,13.45
2022-11-30T15:28:57.458Z,13.82
2022-11-30T15:31:24.232Z,12.98
2022-11-30T15:33:51.072Z,13.13
2022-11-30T15:36:34.046Z,14.23
2022-11-30T15:39:06.942Z,14.70
2022-11-30T15:41:34.294Z,13.38
2022-11-30T15:44:02.296Z,13.43
2022-11-30T15:46:41.401Z,15.02
2022-11-30T15:49:12.750Z,14.00
2022-11-30T15:51:41.019Z,14.48
2022-11-30T15:54:07.891Z,15.20
2022-11-30T15:56:34.783Z,14.57
2022-11-30T15:59:05.446Z,14.38
2022-11-30T16:02:01.367Z,15.52
2022-11-30T16:04:56.409Z,14.55
2022-11-30T16:07:29.004Z,15.45
2022-11-30T16:10:25.269Z,13.88
2022-11-30T16:12:52.951Z,15.48
2022-11-30T16:15:27.450Z,15.30
2022-11-30T16:18:22.842Z,15.80
2022-11-30T16:20:52.629Z,15.73
2022-11-30T16:23:20.881Z,15.30
2022-11-30T16:25:50.933Z,17.50
2022-11-30T16:28:18.623Z,16.52
2022-11-30T16:30:45.630Z,15.00
2022-11-30T16:33:25.763Z,16.30
2022-11-30T16:35:57.136Z,15.85
2022-11-30T16:38:24.453Z,16.77
2022-11-30T16:40:54.021Z,17.67
2022-11-30T16:43:20.759Z,16.80
2022-11-30T16:45:50.345Z,16.80
2022-11-30T16:48:17.613Z,17.13
2022-11-30T16:50:44.729Z,16.50
2022-11-30T16:53:17.684Z,16.33
2022-11-30T16:55:44.631Z,16.20
2022-11-30T16:58:11.739Z,17.95
2022-11-30T17:00:42.207Z,16.20
2022-11-30T17:03:22.181Z,15.55
2022-11-30T17:05:48.940Z,17.00
2022-11-30T17:08:15.698Z,16.23
2022-11-30T17:10:43.176Z,18.67
2022-11-30T17:13:13.841Z,16.65
2022-11-30T17:15:40.982Z,20.02
2022-11-30T17:18:07.826Z,19.92
2022-11-30T17:20:34.966Z,19.02
2022-11-30T17:23:02.136Z,21.00
2022-11-30T17:25:28.864Z,17.63
2022-11-30T17:27:55.636Z,17.95
2022-11-30T17:30:22.531Z,17.17
2022-11-30T17:32:50.583Z,17.23
2022-11-30T17:35:18.609Z,17.92
2022-11-30T17:37:45.826Z,18.25
2022-11-30T17:40:13.240Z,18.08
2022-11-30T17:42:40.280Z,19.67
2022-11-30T17:45:07.708Z,21.90
2022-11-30T17:47:34.441Z,35.78
2022-11-30T17:50:01.362Z,31.05
2022-11-30T17:52:28.161Z,23.70
2022-11-30T17:54:54.971Z,20.98
2022-11-30T17:57:21.932Z,17.67
2022-11-30T17:59:48.725Z,17.77
2022-11-30T18:02:15.543Z,18.25
2022-11-30T18:04:42.612Z,18.95
2022-11-30T18:07:09.430Z,17.30
2022-11-30T18:09:42.200Z,18.15
2022-11-30T18:12:09.938Z,18.37
2022-11-30T18:14:36.739Z,19.52
2022-11-30T18:17:03.727Z,21.15
2022-11-30T18:19:30.511Z,20.95
2022-11-30T18:21:57.462Z,19.63
2022-11-30T18:24:25.731Z,22.05
2022-11-30T18:26:53.154Z,20.08
2022-11-30T18:29:19.988Z,19.38
2022-11-30T18:31:48.536Z,18.92
2022-11-30T18:34:15.520Z,21.08
2022-11-30T18:36:42.370Z,19.38
2022-11-30T18:39:09.215Z,17.30
2022-11-30T18:41:36.182Z,17.90
2022-11-30T18:44:03.004Z,20.00
2022-11-30T18:46:29.846Z,18.63
2022-11-30T18:48:56.957Z,18.38
2022-11-30T18:51:27.943Z,18.73
2022-11-30T18:53:59.778Z,19.27
2022-11-30T18:56:28.261Z,18.48
2022-11-30T18:58:59.898Z,22.60
2022-11-30T19:01:26.809Z,22.73
2022-11-30T19:04:04.326Z,21.40
2022-11-30T19:06:32.837Z,24.20
2022-11-30T19:09:04.506Z,23.60
2022-11-30T19:11:33.403Z,21.83
2022-11-30T19:14:00.746Z,25.58
2022-11-30T19:16:28.356Z,24.02
2022-11-30T19:18:55.345Z,22.30
2022-11-30T19:21:22.500Z,23.33
2022-11-30T19:23:49.486Z,21.67
2022-11-30T19:26:16.303Z,21.67
2022-11-30T19:28:43.589Z,25.25
2022-11-30T19:31:13.908Z,22.00
2022-11-30T19:33:41.876Z,22.83
2022-11-30T19:36:10.559Z,22.10
2022-11-30T19:38:37.361Z,21.60
2022-11-30T19:41:10.469Z,22.80
2022-11-30T19:43:37.391Z,24.98
2022-11-30T19:46:08.847Z,23.42
2022-11-30T19:48:35.801Z,22.30
2022-11-30T19:51:17.639Z,21.65
2022-11-30T19:53:45.117Z,23.85
2022-11-30T19:56:16.441Z,21.98
2022-11-30T19:58:43.978Z,22.90
2022-11-30T20:01:25.010Z,24.05
2022-11-30T20:03:52.713Z,24.63
2022-11-30T20:06:19.585Z,23.10
2022-11-30T20:08:46.305Z,24.10
2022-11-30T20:11:14.236Z,23.55
2022-11-30T20:13:41.364Z,23.67
2022-11-30T20:16:09.522Z,22.75
2022-11-30T20:18:42.702Z,22.92
2022-11-30T20:21:17.164Z,23.67
2022-11-30T20:23:44.467Z,22.88
2022-11-30T20:26:15.680Z,21.85
2022-11-30T20:28:43.015Z,24.80
2022-11-30T20:31:10.751Z,23.85
2022-11-30T20:33:37.630Z,23.52
2022-11-30T20:36:05.962Z,26.02
2022-11-30T20:38:32.888Z,25.58
2022-11-30T20:40:59.669Z,25.50
2022-11-30T20:43:26.491Z,29.85
2022-11-30T20:45:53.439Z,28.25
2022-11-30T20:48:20.243Z,31.27
2022-11-30T20:51:00.919Z,29.27
2022-11-30T20:53:34.548Z,29.58
2022-11-30T20:56:01.257Z,28.25
2022-11-30T20:58:28.117Z,26.63
2022-11-30T21:00:55.438Z,24.60
2022-11-30T21:03:22.495Z,26.73
2022-11-30T21:05:49.504Z,26.98
2022-11-30T21:08:16.370Z,26.42
2022-11-30T21:10:46.307Z,27.77
2022-11-30T21:13:13.448Z,25.15
2022-11-30T21:15:40.428Z,23.70
2022-11-30T21:18:07.262Z,23.77
2022-11-30T21:20:34.048Z,21.83
2022-11-30T21:23:00.733Z,20.50
2022-11-30T21:25:27.456Z,23.73
2022-11-30T21:27:54.329Z,21.70
2022-11-30T21:30:21.112Z,20.67
2022-11-30T21:32:47.905Z,20.23
2022-11-30T21:35:14.805Z,20.80
2022-11-30T21:37:41.600Z,24.85
2022-11-30T21:40:09.051Z,27.40
2022-11-30T21:42:36.128Z,27.65
2022-11-30T21:45:02.950Z,25.02
2022-11-30T21:47:33.205Z,27.42
2022-11-30T21:49:59.966Z,23.33
2022-11-30T21:52:26.984Z,22.02
2022-11-30T21:54:54.304Z,22.60
2022-11-30T21:57:24.737Z,24.00
2022-11-30T21:59:52.374Z,20.98
2022-11-30T22:02:19.259Z,22.25
2022-11-30T22:04:48.942Z,22.88
2022-11-30T22:07:15.805Z,20.85
2022-11-30T22:09:42.650Z,23.15
2022-11-30T22:12:09.388Z,21.45
2022-11-30T22:14:36.368Z,22.52
2022-11-30T22:17:03.175Z,21.20
2022-11-30T22:19:29.900Z,23.50
2022-11-30T22:21:56.620Z,20.83
2022-11-30T22:24:23.417Z,22.73
2022-11-30T22:26:50.197Z,21.42
2022-11-30T22:29:19.543Z,21.65
2022-11-30T22:31:47.845Z,22.83
2022-11-30T22:34:15.624Z,20.30
2022-11-30T22:36:43.219Z,21.30
2022-11-30T22:39:20.289Z,22.98
2022-11-30T22:41:53.094Z,20.90
2022-11-30T22:44:25.843Z,22.35
2022-11-30T22:46:52.773Z,22.15
2022-11-30T22:49:21.628Z,21.85
2022-11-30T22:51:49.002Z,21.38
2022-11-30T22:54:15.986Z,21.10
2022-11-30T22:56:46.840Z,22.80
2022-11-30T22:59:14.165Z,19.85
2022-11-30T23:01:45.708Z,20.77
2022-11-30T23:04:17.060Z,19.33
2022-11-30T23:06:45.198Z,21.10
2022-11-30T23:09:15.439Z,20.90
2022-11-30T23:11:42.203Z,19.55
2022-11-30T23:14:09.663Z,20.23
2022-11-30T23:16:36.788Z,22.65
2022-11-30T23:19:03.902Z,19.92
2022-11-30T23:21:42.193Z,21.17
2022-11-30T23:24:12.390Z,22.40
2022-11-30T23:26:39.257Z,21.95
2022-11-30T23:29:07.655Z,19.80
2022-11-30T23:31:36.386Z,20.70
2022-11-30T23:34:08.234Z,22.58
2022-11-30T23:36:35.438Z,21.58
2022-11-30T23:39:07.043Z,20.58
2022-11-30T23:41:33.898Z,20.67
2022-11-30T23:44:00.971Z,21.30
2022-11-30T23:46:28.027Z,19.52
2022-11-30T23:48:55.733Z,20.88
2022-11-30T23:51:23.001Z,22.05
2022-11-30T23:53:49.869Z,22.15
2022-11-30T23:56:17.396Z,21.92
2022-11-30T23:58:45.393Z,22.20
